Time;durP1;ratioP1;P1;durP2;ratioP2;P2;SDS_P1;SDS_P2;PMS_P1;PMS_P2;Temp;Humidity;BMP_temperature;BMP_pressure;BME280_temperature;BME280_humidity;BME280_pressure;Samples;Min_cycle;Max_cycle;Signal;HPM_P1;HPM_P2
2021/07/24 00:01:11;;;;;;;13.00;10.28;;;;;;;15.12;85.83;98068.81;1612955;89;22066;-76
2021/07/24 00:03:37;;;;;;;15.88;10.45;;;;;;;15.09;86.61;98070.00;1612687;87;20988;-76
2021/07/24 00:06:04;;;;;;;17.70;10.72;;;;;;;15.06;86.68;98063.25;1613241;89;20915;-72
2021/07/24 00:08:29;;;;;;;13.83;10.85;;;;;;;15.02;86.69;98067.69;1612677;87;20963;-76
2021/07/24 00:10:55;;;;;;;17.57;10.58;;;;;;;14.99;86.83;98068.31;1613091;89;21702;-76
2021/07/24 00:13:21;;;;;;;16.37;10.35;;;;;;;14.97;86.88;98069.74;1612726;87;21250;-77
2021/07/24 00:15:47;;;;;;;17.35;10.50;;;;;;;14.95;85.82;98074.12;1612990;89;21014;-76
2021/07/24 00:18:13;;;;;;;17.80;11.00;;;;;;;14.89;86.75;98066.63;1612739;87;20914;-72
2021/07/24 00:20:39;;;;;;;14.95;11.55;;;;;;;14.87;86.43;98061.23;1612713;87;20868;-71
2021/07/24 00:23:09;;;;;;;15.93;10.80;;;;;;;14.82;86.74;98062.70;1612796;87;20982;-76
2021/07/24 00:25:36;;;;;;;14.60;10.15;;;;;;;14.76;86.84;98062.55;1613123;89;21158;-71
2021/07/24 00:28:02;;;;;;;16.37;12.28;;;;;;;14.73;86.20;98056.34;1612751;87;21141;-72
2021/07/24 00:30:28;;;;;;;19.57;11.30;;;;;;;14.67;87.50;98056.44;1612932;89;21061;-72
2021/07/24 00:32:54;;;;;;;13.60;9.63;;;;;;;14.61;87.57;98054.95;1612729;87;20971;-71
2021/07/24 00:35:19;;;;;;;24.45;12.33;;;;;;;14.58;87.46;98046.56;1612969;89;20895;-74
2021/07/24 00:37:45;;;;;;;17.10;10.30;;;;;;;14.52;88.17;98045.05;1612792;87;21315;-71
2021/07/24 00:40:15;;;;;;;15.03;9.80;;;;;;;14.47;88.53;98046.53;1612763;89;20876;-72
2021/07/24 00:42:47;;;;;;;16.20;10.55;;;;;;;14.41;88.67;98041.70;1612748;87;20952;-75
2021/07/24 00:45:14;;;;;;;13.05;9.45;;;;;;;14.38;90.04;98039.03;1593402;89;21051;-71
2021/07/24 00:47:45;;;;;;;12.95;10.60;;;;;;;14.45;88.96;98042.75;1612769;87;20988;-76
2021/07/24 00:50:17;;;;;;;15.45;10.30;;;;;;;14.44;89.57;98043.00;1612915;89;21162;-72
2021/07/24 00:52:43;;;;;;;15.78;10.68;;;;;;;14.45;88.53;98040.02;1612771;87;21401;-76
2021/07/24 00:55:13;;;;;;;18.23;10.58;;;;;;;14.48;88.18;98039.97;1612992;89;20971;-76
2021/07/24 00:57:46;;;;;;;18.75;10.82;;;;;;;14.46;88.34;98037.55;1612706;87;20951;-71
2021/07/24 01:00:13;;;;;;;16.57;9.88;;;;;;;14.46;88.40;98044.92;1612971;89;21450;-76
2021/07/24 01:02:39;;;;;;;12.23;9.50;;;;;;;14.45;88.34;98037.83;1612680;87;21372;-71
2021/07/24 01:05:07;;;;;;;18.73;10.35;;;;;;;14.40;88.24;98040.89;1612963;87;21015;-72
2021/07/24 01:07:39;;;;;;;18.48;11.57;;;;;;;14.37;87.64;98040.70;1612890;87;21019;-72
2021/07/24 01:10:06;;;;;;;13.53;10.32;;;;;;;14.31;88.44;98043.27;1612862;87;20999;-75
2021/07/24 01:12:35;;;;;;;13.30;9.30;;;;;;;14.27;87.64;98042.25;1612780;87;20952;-71
2021/07/24 01:15:02;;;;;;;;;;;;;;;14.23;87.20;98039.33;1615400;89;21039;-77
2021/07/24 01:17:28;;;;;;;12.73;9.90;;;;;;;14.13;88.42;98041.45;1612794;87;20219;-72
2021/07/24 01:19:54;;;;;;;12.90;9.10;;;;;;;14.08;87.86;98038.26;1615084;86;21000;-77
2021/07/24 01:22:20;;;;;;;12.63;9.78;;;;;;;14.07;87.85;98042.91;1638020;86;20976;-72
2021/07/24 01:24:46;;;;;;;15.05;10.25;;;;;;;14.06;87.73;98035.03;1638242;86;21154;-76
2021/07/24 01:27:12;;;;;;;13.45;10.13;;;;;;;14.06;87.17;98034.48;1638064;86;21847;-72
2021/07/24 01:29:38;;;;;;;16.35;9.83;;;;;;;14.02;87.05;98032.67;1631391;88;20987;-76
2021/07/24 01:32:05;;;;;;;16.25;10.88;;;;;;;13.92;87.85;98039.65;1631568;86;21043;-72
2021/07/24 01:34:31;;;;;;;13.62;10.20;;;;;;;13.87;87.77;98039.77;1631641;88;20976;-76
2021/07/24 01:36:57;;;;;;;12.33;9.93;;;;;;;13.85;88.01;98042.79;1631676;86;20989;-77
2021/07/24 01:39:23;;;;;;;14.80;9.68;;;;;;;13.83;88.23;98037.62;1612662;87;21464;-73
2021/07/24 01:41:49;;;;;;;16.62;10.63;;;;;;;13.85;87.96;98030.53;1638116;86;21004;-72
2021/07/24 01:44:15;;;;;;;14.53;9.43;;;;;;;13.86;87.33;98024.53;1602866;89;20927;-76
2021/07/24 01:46:43;;;;;;;18.48;10.60;;;;;;;13.87;87.21;98028.87;1638290;86;20860;-76
2021/07/24 01:49:14;;;;;;;14.13;9.95;;;;;;;13.84;87.53;98030.25;1637805;87;21451;-76
2021/07/24 01:54:49;;;;;;;13.70;9.18;;;;;;;13.81;87.75;98030.86;1638080;87;20968;-76
2021/07/24 01:57:14;;;;;;;12.03;9.30;;;;;;;13.75;89.16;98027.42;1637972;86;20984;-72
2021/07/24 01:59:44;;;;;;;13.10;10.15;;;;;;;13.76;89.10;98026.89;1638386;87;20939;-72
2021/07/24 02:02:11;;;;;;;12.78;10.30;;;;;;;13.72;89.82;98022.58;1638252;86;21402;-75
2021/07/24 02:04:40;;;;;;;12.65;8.83;;;;;;;13.72;89.05;98026.66;1638352;87;21244;-72
2021/07/24 02:07:09;;;;;;;15.35;10.82;;;;;;;13.68;89.02;98026.22;1640346;86;20996;-76
2021/07/24 02:09:35;;;;;;;13.88;10.40;;;;;;;13.67;89.14;98024.58;1637921;86;20995;-72
2021/07/24 02:12:03;;;;;;;13.68;9.28;;;;;;;13.67;89.54;98023.21;1631579;86;20945;-76
2021/07/24 02:14:33;;;;;;;13.53;10.37;;;;;;;13.66;89.09;98023.77;1631628;86;20953;-76
2021/07/24 02:16:59;;;;;;;12.28;9.60;;;;;;;13.64;89.66;98019.19;1611877;88;21881;-72
2021/07/24 02:19:25;;;;;;;17.05;9.65;;;;;;;13.63;88.87;98015.41;1638228;86;21425;-72
2021/07/24 02:21:51;;;;;;;13.75;10.75;;;;;;;13.65;89.82;98019.44;1637874;86;20960;-76
2021/07/24 02:24:17;;;;;;;14.73;10.00;;;;;;;13.69;89.50;98016.38;1602125;89;20913;-73
2021/07/24 02:26:43;;;;;;;12.78;9.68;;;;;;;13.75;89.15;98020.61;1638398;86;21470;-72
2021/07/24 02:29:10;;;;;;;15.75;9.75;;;;;;;13.74;89.27;98024.44;1612151;87;22070;-76
2021/07/24 02:31:36;;;;;;;14.47;9.38;;;;;;;13.73;88.83;98019.30;1637955;86;21008;-76
2021/07/24 02:34:02;;;;;;;15.25;10.20;;;;;;;13.67;89.47;98019.97;1638355;86;20921;-72
2021/07/24 02:36:27;;;;;;;17.65;9.63;;;;;;;13.68;88.89;98023.50;1602301;87;20909;-76
2021/07/24 02:38:53;;;;;;;14.80;10.55;;;;;;;13.71;88.87;98026.41;1638163;87;20975;-76
2021/07/24 02:41:19;;;;;;;14.87;10.10;;;;;;;13.72;89.36;98016.33;1638342;87;21115;-72
2021/07/24 02:43:45;;;;;;;13.03;9.95;;;;;;;13.64;89.62;98024.63;1631292;86;21021;-71
2021/07/24 02:46:17;;;;;;;13.50;9.28;;;;;;;13.60;89.05;98022.27;1631608;88;21613;-76
2021/07/24 02:48:39;;;;;;;12.50;9.38;;;;;;;13.54;88.37;98020.73;1631403;86;20945;-76
2021/07/24 02:51:05;;;;;;;15.38;10.03;;;;;;;13.46;89.79;98022.22;1631829;88;20911;-72
2021/07/24 02:53:31;;;;;;;13.20;9.28;;;;;;;13.48;87.79;98024.08;1631374;86;21171;-72
2021/07/24 02:55:56;;;;;;;15.43;10.03;;;;;;;13.48;87.59;98032.80;1638432;87;21589;-72
2021/07/24 02:58:22;;;;;;;10.53;8.78;;;;;;;13.39;89.83;98031.87;1631410;86;20856;-75
2021/07/24 03:00:48;;;;;;;14.83;9.75;;;;;;;13.40;90.05;98032.12;1638620;87;20947;-73
2021/07/24 03:03:14;;;;;;;13.05;10.63;;;;;;;13.44;89.88;98029.08;1638171;86;21578;-77
2021/07/24 03:05:40;;;;;;;16.27;10.95;;;;;;;13.48;89.21;98026.00;1602400;89;21303;-76
2021/07/24 03:08:06;;;;;;;18.82;10.78;;;;;;;13.47;91.11;98031.99;1610927;87;21011;-72
2021/07/24 03:10:32;;;;;;;16.42;11.10;;;;;;;13.46;90.04;98030.94;1631595;88;20892;-74
2021/07/24 03:12:58;;;;;;;12.23;9.88;;;;;;;13.47;90.46;98037.99;1631306;86;20908;-72
2021/07/24 03:15:24;;;;;;;13.15;9.65;;;;;;;13.47;89.57;98031.19;1638336;87;20924;-73
2021/07/24 03:17:50;;;;;;;14.63;10.25;;;;;;;13.48;90.08;98030.88;1631415;86;21003;-76
2021/07/24 03:20:16;;;;;;;13.53;9.80;;;;;;;13.49;89.44;98036.58;1601309;89;20917;-73
2021/07/24 03:22:42;;;;;;;13.80;10.50;;;;;;;13.47;89.80;98035.27;1638410;86;20952;-72
2021/07/24 03:25:09;;;;;;;21.60;11.45;;;;;;;13.48;88.53;98033.61;1631228;88;21096;-76
2021/07/24 03:27:34;;;;;;;14.85;10.30;;;;;;;13.52;88.74;98029.75;1631466;86;21004;-72
2021/07/24 03:30:01;;;;;;;13.80;9.20;;;;;;;13.53;88.93;98028.09;1631253;88;21242;-76
2021/07/24 03:32:27;;;;;;;15.43;10.32;;;;;;;13.55;88.28;98033.23;1631411;86;21013;-76
2021/07/24 03:34:53;;;;;;;14.58;9.85;;;;;;;13.53;88.21;98036.25;1601631;89;21013;-72
2021/07/24 03:37:21;;;;;;;14.18;8.33;;;;;;;13.56;87.97;98034.84;1638107;86;20919;-72
2021/07/24 03:39:46;;;;;;;14.60;9.33;;;;;;;13.57;87.48;98038.38;1638107;87;21015;-76
2021/07/24 03:42:12;;;;;;;12.37;9.18;;;;;;;13.55;88.13;98031.87;1638214;86;22019;-72
2021/07/24 03:44:38;;;;;;;13.22;9.45;;;;;;;13.66;87.64;98033.30;1631380;86;20877;-76
2021/07/24 03:47:04;;;;;;;11.30;9.35;;;;;;;13.73;87.61;98038.36;1631578;86;20983;-72
2021/07/24 03:49:31;;;;;;;10.63;7.85;;;;;;;13.76;86.85;98033.70;1631477;88;20896;-72
2021/07/24 03:52:11;;;;;;;10.55;8.58;;;;;;;13.76;86.47;98032.34;1638317;86;20989;-71
2021/07/24 03:54:39;;;;;;;13.05;9.43;;;;;;;13.74;86.33;98031.25;1631339;87;21354;-76
2021/07/24 03:57:05;;;;;;;17.42;10.30;;;;;;;13.76;86.35;98034.50;1638177;86;20856;-76
2021/07/24 03:59:31;;;;;;;13.68;10.20;;;;;;;13.76;86.27;98033.14;1631315;86;20909;-72
2021/07/24 04:01:58;;;;;;;16.97;10.70;;;;;;;13.79;85.93;98031.73;1631521;86;20981;-77
2021/07/24 04:04:25;;;;;;;14.05;8.73;;;;;;;13.80;86.10;98026.53;1631256;88;20992;-76
2021/07/24 04:06:52;;;;;;;13.45;9.18;;;;;;;13.79;86.42;98024.92;1638372;86;21572;-76
2021/07/24 04:09:18;;;;;;;10.40;8.68;;;;;;;13.90;86.02;98036.43;1637903;87;20936;-71
2021/07/24 04:11:44;;;;;;;11.48;9.43;;;;;;;13.95;85.85;98034.43;1638241;86;21054;-76
2021/07/24 04:14:10;;;;;;;14.03;9.70;;;;;;;13.95;86.28;98037.15;1632954;86;20853;-76
2021/07/24 04:16:36;;;;;;;13.25;9.38;;;;;;;14.00;86.51;98035.67;1638282;86;21059;-71
2021/07/24 04:19:02;;;;;;;11.28;8.40;;;;;;;14.14;86.04;98032.17;1638200;86;21322;-76
2021/07/24 04:21:27;;;;;;;14.00;10.13;;;;;;;14.21;85.62;98030.66;1626618;87;20903;-76
2021/07/24 04:23:54;;;;;;;17.20;9.25;;;;;;;14.21;85.15;98036.11;1606386;89;20911;-71
2021/07/24 04:26:24;;;;;;;17.00;9.08;;;;;;;14.29;85.19;98027.23;1606393;89;20944;-76
2021/07/24 04:28:50;;;;;;;13.38;9.68;;;;;;;14.42;85.01;98026.14;1606391;89;20999;-72
2021/07/24 04:31:16;;;;;;;13.68;9.30;;;;;;;14.50;85.27;98030.36;1606293;89;21404;-75
2021/07/24 04:33:42;;;;;;;14.95;10.35;;;;;;;14.66;84.83;98025.39;1606190;88;20856;-76
2021/07/24 04:36:12;;;;;;;14.00;9.15;;;;;;;14.71;84.54;98024.48;1606474;89;21407;-75
2021/07/24 04:38:38;;;;;;;14.45;9.78;;;;;;;14.78;84.10;98018.84;1606142;88;20964;-71
2021/07/24 04:41:04;;;;;;;11.33;9.75;;;;;;;14.84;84.23;98021.70;1606504;87;21058;-72
2021/07/24 04:43:30;;;;;;;15.15;10.43;;;;;;;14.83;84.44;98022.02;1606247;88;21263;-76
2021/07/24 04:45:56;;;;;;;13.10;9.80;;;;;;;14.98;84.34;98012.70;1606455;89;20915;-72
2021/07/24 04:48:22;;;;;;;13.10;10.05;;;;;;;15.12;84.31;98022.98;1606204;88;20967;-76
2021/07/24 04:50:50;;;;;;;18.17;10.30;;;;;;;15.28;83.89;98020.14;1606471;89;20954;-76
2021/07/24 04:53:16;;;;;;;15.15;11.70;;;;;;;15.45;83.51;98019.45;1606353;88;21411;-76
2021/07/24 04:55:42;;;;;;;16.20;10.13;;;;;;;15.57;82.91;98015.61;1606372;89;21174;-71
2021/07/24 04:58:09;;;;;;;15.70;10.08;;;;;;;15.63;83.31;98009.47;1606277;88;20907;-72
2021/07/24 05:00:38;;;;;;;13.08;10.43;;;;;;;15.81;82.81;98018.03;1606473;89;20991;-76
2021/07/24 05:03:04;;;;;;;;;;;;;;;15.97;82.59;98012.95;1608493;88;21042;-71
2021/07/24 05:05:30;;;;;;;15.85;11.05;;;;;;;16.00;82.66;98009.60;1606166;89;20144;-71
2021/07/24 05:07:56;;;;;;;11.28;9.60;;;;;;;16.14;82.34;98011.64;1606327;88;20927;-71
2021/07/24 05:10:22;;;;;;;12.50;9.08;;;;;;;16.28;81.71;98013.72;1572058;89;20965;-71
2021/07/24 05:12:48;;;;;;;13.38;9.85;;;;;;;16.39;81.68;98010.13;1571866;90;20980;-75
2021/07/24 05:15:14;;;;;;;13.98;10.25;;;;;;;16.55;81.59;98016.77;1607832;86;20860;-71
2021/07/24 05:17:42;;;;;;;14.58;9.73;;;;;;;16.67;80.86;98016.16;1606278;88;20879;-71
2021/07/24 05:20:09;;;;;;;13.15;10.35;;;;;;;16.73;80.99;98012.16;1606297;89;21181;-71
2021/07/24 05:22:35;;;;;;;14.60;8.78;;;;;;;16.93;80.52;98003.91;1628267;86;21048;-72
2021/07/24 05:25:01;;;;;;;14.28;9.88;;;;;;;17.20;80.09;98006.88;1637955;87;20923;-71
2021/07/24 05:27:27;;;;;;;13.15;9.03;;;;;;;17.24;80.18;98005.09;1638139;86;20881;-75
2021/07/24 05:29:52;;;;;;;14.53;10.30;;;;;;;17.42;79.67;98003.94;1631373;88;21590;-71
2021/07/24 05:32:18;;;;;;;11.68;8.50;;;;;;;17.67;78.70;98006.39;1631456;86;21249;-71
2021/07/24 05:34:44;;;;;;;12.73;9.08;;;;;;;17.74;78.55;98003.19;1631303;88;20908;-76
2021/07/24 05:37:10;;;;;;;14.07;10.82;;;;;;;17.91;77.77;98002.33;1631335;86;20981;-76
2021/07/24 05:39:36;;;;;;;13.80;10.00;;;;;;;18.02;76.71;98002.20;1602795;89;20917;-76
2021/07/24 05:42:03;;;;;;;14.70;10.23;;;;;;;18.08;76.57;97999.52;1637999;86;20995;-76
2021/07/24 05:44:28;;;;;;;14.40;10.53;;;;;;;18.15;75.95;98002.56;1637737;87;21243;-76
2021/07/24 05:46:54;;;;;;;11.18;8.48;;;;;;;18.16;75.69;97994.57;1631091;86;20904;-76
2021/07/24 05:49:20;;;;;;;14.13;9.10;;;;;;;18.32;75.62;97996.19;1638207;86;21499;-76
2021/07/24 05:51:46;;;;;;;13.48;9.38;;;;;;;18.45;76.11;97996.51;1637981;86;20995;-76
2021/07/24 05:54:12;;;;;;;12.35;8.95;;;;;;;18.75;75.08;97994.59;1631446;88;20963;-72
2021/07/24 05:56:38;;;;;;;14.60;9.60;;;;;;;18.85;74.44;97992.81;1612359;86;21219;-76
2021/07/24 05:59:04;;;;;;;12.18;9.43;;;;;;;18.88;74.53;97996.28;1638073;86;20963;-72
2021/07/24 06:01:30;;;;;;;14.93;9.53;;;;;;;19.01;73.71;97988.90;1637885;86;20976;-75
2021/07/24 06:03:56;;;;;;;11.60;9.80;;;;;;;19.11;72.55;97985.74;1638428;86;20931;-76
2021/07/24 06:06:22;;;;;;;14.23;9.55;;;;;;;19.15;72.66;97992.76;1637812;86;21368;-76
2021/07/24 06:08:48;;;;;;;12.60;8.98;;;;;;;19.29;71.78;97993.83;1637697;87;21155;-71
2021/07/24 06:11:14;;;;;;;13.08;9.90;;;;;;;19.32;71.74;97989.86;1638542;87;20975;-72
2021/07/24 06:13:40;;;;;;;14.55;9.28;;;;;;;19.43;70.82;97989.66;1637770;86;21597;-76
2021/07/24 06:16:10;;;;;;;11.95;8.60;;;;;;;19.47;71.45;97986.22;1631522;88;20940;-71
2021/07/24 06:18:37;;;;;;;14.78;10.58;;;;;;;19.67;71.25;97983.47;1631262;86;21496;-72
2021/07/24 06:21:03;;;;;;;12.63;9.10;;;;;;;19.86;71.04;97982.92;1631593;88;21161;-71
2021/07/24 06:23:29;;;;;;;16.37;9.03;;;;;;;19.97;70.28;97977.78;1608656;87;20939;-76
2021/07/24 06:25:56;;;;;;;15.98;10.35;;;;;;;19.98;69.59;97977.43;1606234;87;21427;-76
2021/07/24 06:28:24;;;;;;;14.60;9.50;;;;;;;20.02;70.73;97976.19;1606380;88;20996;-72
2021/07/24 06:30:49;;;;;;;14.73;9.37;;;;;;;20.26;70.17;97978.16;1606566;87;20987;-77
2021/07/24 06:33:15;;;;;;;11.48;9.08;;;;;;;20.37;68.64;97979.87;1606490;88;21199;-76
2021/07/24 06:35:41;;;;;;;12.73;9.68;;;;;;;20.33;69.52;97981.69;1606339;89;20884;-76
2021/07/24 06:38:08;;;;;;;17.75;9.48;;;;;;;20.34;67.72;97979.16;1606523;88;20971;-77
2021/07/24 06:40:35;;;;;;;12.05;8.80;;;;;;;20.45;68.42;97975.65;1606338;88;20999;-72
2021/07/24 06:43:01;;;;;;;16.48;9.95;;;;;;;20.72;67.79;97974.69;1606402;87;21356;-72
2021/07/24 06:45:27;;;;;;;10.65;8.83;;;;;;;20.78;68.36;97974.69;1606415;89;21087;-72
2021/07/24 06:47:53;;;;;;;14.18;9.00;;;;;;;20.99;67.92;97971.75;1606256;88;21581;-76
2021/07/24 06:50:23;;;;;;;13.93;9.53;;;;;;;21.16;67.67;97971.46;1606402;89;20955;-73
2021/07/24 06:52:47;;;;;;;13.15;9.45;;;;;;;21.36;67.32;97971.06;1606286;87;20988;-73
2021/07/24 06:55:13;;;;;;;11.50;8.55;;;;;;;21.65;66.22;97973.45;1606412;89;21597;-73
2021/07/24 06:57:39;;;;;;;11.35;8.35;;;;;;;21.72;64.05;97968.70;1606369;88;21071;-77
2021/07/24 07:00:07;;;;;;;11.40;8.60;;;;;;;21.57;65.22;97975.80;1606271;89;20972;-76
2021/07/24 07:02:33;;;;;;;16.52;10.78;;;;;;;21.76;64.16;97975.69;1601737;88;21123;-77
2021/07/24 07:04:59;;;;;;;12.13;9.25;;;;;;;21.81;65.37;97967.16;1571758;90;21552;-76
2021/07/24 07:07:25;;;;;;;13.20;10.35;;;;;;;22.13;65.70;97964.67;1571678;90;20894;-77
2021/07/24 07:09:51;;;;;;;12.43;8.48;;;;;;;22.42;66.08;97968.90;1571366;90;20993;-73
2021/07/24 07:12:17;;;;;;;10.90;8.48;;;;;;;22.69;63.08;97963.59;1608620;88;20971;-77
2021/07/24 07:14:43;;;;;;;11.30;8.63;;;;;;;22.84;63.14;97963.33;1606432;89;20951;-73
2021/07/24 07:17:09;;;;;;;12.37;8.43;;;;;;;23.25;63.16;97967.38;1606437;88;21573;-73
2021/07/24 07:19:36;;;;;;;12.07;7.50;;;;;;;23.43;62.02;97963.00;1606457;89;20967;-77
2021/07/24 07:22:06;;;;;;;14.13;7.75;;;;;;;23.62;61.59;97956.66;1611452;87;21258;-73
2021/07/24 07:24:32;;;;;;;8.65;6.92;;;;;;;23.95;61.10;97953.30;1631428;88;21391;-73
2021/07/24 07:26:58;;;;;;;12.73;6.80;;;;;;;24.10;58.53;97957.92;1638191;86;20992;-73
2021/07/24 07:29:25;;;;;;;9.40;6.60;;;;;;;24.26;56.43;97958.34;1603720;88;21079;-73
2021/07/24 07:31:51;;;;;;;8.70;6.67;;;;;;;24.27;57.75;97962.70;1631415;86;20996;-73
2021/07/24 07:34:17;;;;;;;9.20;8.30;;;;;;;24.76;56.43;97964.07;1631565;88;21340;-73
2021/07/24 07:36:42;;;;;;;9.50;7.58;;;;;;;25.09;56.54;97961.17;1638213;86;20911;-77
2021/07/24 07:39:08;;;;;;;9.43;7.10;;;;;;;25.45;55.38;97965.96;1631553;88;20956;-77
2021/07/24 07:41:34;;;;;;;8.08;6.40;;;;;;;25.88;52.27;97962.27;1631527;86;21041;-78
2021/07/24 07:44:00;;;;;;;8.78;6.60;;;;;;;26.39;53.38;97966.50;1631533;88;21015;-77
2021/07/24 07:46:26;;;;;;;8.80;6.10;;;;;;;26.78;49.71;97959.03;1638122;86;21897;-78
2021/07/24 07:48:52;;;;;;;7.65;5.60;;;;;;;26.87;48.68;97958.09;1638267;86;20880;-77
2021/07/24 07:51:18;;;;;;;8.60;6.08;;;;;;;27.35;48.77;97957.95;1638080;87;20959;-73
2021/07/24 07:53:44;;;;;;;8.63;5.72;;;;;;;27.50;46.10;97951.81;1632786;85;21546;-77
2021/07/24 07:56:10;;;;;;;8.78;5.85;;;;;;;28.32;47.07;97950.58;1631372;88;20940;-74
2021/07/24 07:58:37;;;;;;;10.28;6.62;;;;;;;28.32;47.07;97950.58;1638380;86;21327;-77
2021/07/24 08:01:09;;;;;;;7.80;5.72;;;;;;;28.73;45.50;97941.77;1638067;87;21011;-73
2021/07/24 08:03:35;;;;;;;9.88;6.60;;;;;;;28.97;45.00;97940.94;1637721;86;20995;-76
2021/07/24 08:06:01;;;;;;;8.20;5.75;;;;;;;29.16;42.98;97942.45;1639326;86;20912;-77
2021/07/24 08:08:27;;;;;;;8.90;6.30;;;;;;;29.21;42.17;97937.83;1631366;86;21003;-72
2021/07/24 08:10:53;;;;;;;8.23;6.20;;;;;;;29.14;43.75;97937.28;1638402;87;21175;-76
2021/07/24 08:13:19;;;;;;;9.98;6.70;;;;;;;29.51;43.69;97937.93;1637598;86;20880;-73
2021/07/24 08:15:47;;;;;;;11.33;5.53;;;;;;;29.53;42.95;97935.52;1631202;88;21669;-73
2021/07/24 08:18:14;;;;;;;7.37;5.62;;;;;;;29.80;41.54;97931.55;1638047;86;21483;-76
2021/07/24 08:20:41;;;;;;;6.50;5.90;;;;;;;30.32;41.57;97928.96;1638052;86;21078;-76
2021/07/24 08:23:08;;;;;;;6.33;5.45;;;;;;;30.42;40.95;97931.47;1621946;86;21875;-74
2021/07/24 08:25:36;;;;;;;11.18;6.65;;;;;;;30.35;39.81;97925.97;1606343;89;21068;-73
2021/07/24 08:28:03;;;;;;;13.13;6.28;;;;;;;30.93;39.69;97914.98;1605714;87;20952;-78
2021/07/24 08:30:29;;;;;;;9.25;6.37;;;;;;;31.36;37.67;97918.06;1606325;87;20953;-74
2021/07/24 08:32:55;;;;;;;6.80;5.90;;;;;;;31.27;39.04;97914.38;1571730;90;20917;-78
2021/07/24 08:35:21;;;;;;;8.58;6.95;;;;;;;31.62;38.49;97910.90;1606604;87;22024;-75
2021/07/24 08:37:47;;;;;;;11.03;6.20;;;;;;;32.03;37.59;97909.30;1572141;90;20945;-78
2021/07/24 08:40:14;;;;;;;9.33;6.55;;;;;;;32.04;35.31;97910.88;1571365;90;20969;-78
2021/07/24 08:42:41;;;;;;;8.18;6.00;;;;;;;32.49;35.55;97904.95;1571493;90;20974;-78
2021/07/24 08:45:13;;;;;;;9.85;6.95;;;;;;;33.30;36.87;97919.38;1606656;89;21452;-75
2021/07/24 08:47:39;;;;;;;10.98;6.53;;;;;;;33.65;36.21;97918.43;1606109;88;21899;-75
2021/07/24 08:50:08;;;;;;;9.93;7.47;;;;;;;34.22;34.27;97917.89;1606320;89;21043;-75
2021/07/24 08:52:34;;;;;;;8.73;6.03;;;;;;;34.16;33.26;97911.20;1606206;87;21023;-79
2021/07/24 08:55:02;;;;;;;6.53;5.62;;;;;;;34.12;33.45;97913.95;1606292;89;21387;-78
2021/07/24 08:57:35;;;;;;;6.20;5.60;;;;;;;33.82;31.67;97912.22;1606484;87;21060;-79
2021/07/24 09:00:12;;;;;;;7.42;5.85;;;;;;;33.33;31.96;97911.50;1606404;89;21127;-75
2021/07/24 09:02:40;;;;;;;7.45;6.55;;;;;;;33.59;31.32;97908.96;1606404;88;20995;-79
2021/07/24 09:05:10;;;;;;;11.70;6.08;;;;;;;34.17;31.48;97902.94;1606375;87;20999;-80
2021/07/24 09:07:39;;;;;;;10.55;6.05;;;;;;;33.84;29.34;97897.94;1606210;88;21423;-79
2021/07/24 09:10:06;;;;;;;8.10;6.33;;;;;;;33.66;30.91;97896.92;1606413;89;20972;-79
2021/07/24 09:12:33;;;;;;;7.28;5.92;;;;;;;33.91;30.79;97895.57;1606348;88;21161;-78
2021/07/24 09:14:58;;;;;;;6.20;5.60;;;;;;;33.46;30.76;97895.41;1606232;89;21082;-77
2021/07/24 09:17:24;;;;;;;6.47;5.45;;;;;;;33.83;31.63;97889.30;1606329;88;20891;-77
2021/07/24 09:19:51;;;;;;;9.50;5.95;;;;;;;32.68;32.01;97890.15;1606330;89;21481;-77
2021/07/24 09:22:29;;;;;;;12.53;6.15;;;;;;;31.75;33.06;97901.32;1606283;87;21003;-76
2021/07/24 09:25:21;;;;;;;9.80;7.20;;;;;;;30.70;33.89;97892.69;1606276;89;21852;-74
2021/07/24 09:27:54;;;;;;;7.72;5.90;;;;;;;30.26;35.57;97892.13;1605640;88;21047;-79
2021/07/24 09:30:35;;;;;;;9.48;6.50;;;;;;;31.50;34.61;97895.48;1606249;89;21043;-77
2021/07/24 09:33:13;;;;;;;7.60;6.08;;;;;;;31.45;34.08;97886.17;1606201;88;20984;-74
2021/07/24 09:35:54;;;;;;;17.50;6.07;;;;;;;31.45;34.08;97886.17;1606449;88;21047;-75
2021/07/24 09:38:32;;;;;;;8.70;7.22;;;;;;;31.20;33.57;97892.09;1606322;88;21337;-77
2021/07/24 09:41:01;;;;;;;9.83;5.97;;;;;;;32.22;32.91;97886.78;1606165;89;20940;-74
2021/07/24 09:43:38;;;;;;;9.55;6.28;;;;;;;33.71;30.61;97885.79;1606124;88;21052;-77
2021/07/24 09:46:21;;;;;;;7.37;5.70;;;;;;;34.59;29.39;97876.98;1606455;89;21040;-78
2021/07/24 09:48:54;;;;;;;12.55;6.53;;;;;;;34.63;28.76;97879.09;1606171;88;21039;-77
2021/07/24 09:51:38;;;;;;;6.90;5.65;;;;;;;33.42;30.30;97887.69;1606170;87;21054;-74
2021/07/24 09:54:04;;;;;;;10.60;6.15;;;;;;;32.48;30.83;97880.32;1606540;88;21444;-78
2021/07/24 09:56:44;;;;;;;9.53;5.70;;;;;;;33.13;28.94;97877.66;1606371;88;20985;-75
2021/07/24 09:59:26;;;;;;;9.88;6.40;;;;;;;34.68;27.93;97874.31;1606271;88;21425;-74
2021/07/24 10:02:02;;;;;;;5.80;5.03;;;;;;;34.58;24.33;97866.97;1604071;88;20944;-74
2021/07/24 10:04:33;;;;;;;7.90;5.05;;;;;;;36.35;25.60;97860.70;1606568;89;21165;-78
2021/07/24 10:07:04;;;;;;;6.65;5.12;;;;;;;36.33;25.13;97865.23;1606227;88;20980;-78
2021/07/24 10:09:35;;;;;;;7.72;5.60;;;;;;;36.10;24.14;97856.55;1601591;89;20979;-78
2021/07/24 10:12:08;;;;;;;8.48;5.67;;;;;;;36.61;24.59;97857.82;1606264;88;20932;-79
2021/07/24 10:14:36;;;;;;;5.47;4.97;;;;;;;37.18;24.42;97853.69;1606518;89;21057;-74
2021/07/24 10:17:03;;;;;;;5.50;4.28;;;;;;;38.22;24.01;97850.95;1605324;88;21890;-78
2021/07/24 10:19:29;;;;;;;9.48;5.60;;;;;;;38.20;23.07;97849.20;1606418;89;21499;-78
2021/07/24 10:21:57;;;;;;;7.50;5.17;;;;;;;36.13;25.24;97849.36;1606336;88;20986;-78
2021/07/24 10:24:23;;;;;;;8.75;5.35;;;;;;;34.87;26.49;97841.62;1625757;87;20956;-75
2021/07/24 10:27:05;;;;;;;10.68;5.80;;;;;;;35.85;25.92;97844.67;1638028;86;21107;-77
2021/07/24 10:29:35;;;;;;;6.85;5.22;;;;;;;35.36;26.45;97843.58;1638180;87;21846;-75
2021/07/24 10:32:08;;;;;;;7.70;5.33;;;;;;;34.67;27.57;97848.83;1636969;86;20981;-78
2021/07/24 10:34:36;;;;;;;8.98;6.00;;;;;;;33.84;28.84;97849.34;1631795;87;21056;-75
2021/07/24 10:37:24;;;;;;;6.80;5.70;;;;;;;34.48;28.37;97848.54;1638210;86;21429;-77
2021/07/24 10:39:50;;;;;;;10.28;6.15;;;;;;;34.96;28.78;97855.27;1635205;87;21035;-74
2021/07/24 10:42:16;;;;;;;9.65;5.33;;;;;;;33.11;30.94;97854.23;1631294;86;21026;-77
2021/07/24 10:44:42;;;;;;;6.97;5.95;;;;;;;32.68;31.89;97847.29;1631536;87;21035;-78
2021/07/24 10:47:10;;;;;;;9.85;5.87;;;;;;;34.89;29.47;97852.66;1638271;86;20988;-77
2021/07/24 10:49:39;;;;;;;;;;;;;;;34.99;29.16;97854.98;1640412;87;21452;-78
2021/07/24 10:52:10;;;;;;;9.60;6.08;;;;;;;35.27;28.09;97853.33;1634958;86;20174;-78
2021/07/24 10:55:06;;;;;;;8.68;6.75;;;;;;;33.64;30.28;97853.66;1638250;87;21378;-77
2021/07/24 10:57:55;;;;;;;12.03;6.70;;;;;;;32.03;32.27;97856.06;1630700;86;21425;-75
2021/07/24 11:00:25;;;;;;;7.50;5.75;;;;;;;34.16;29.84;97852.79;1631162;88;21059;-78
2021/07/24 11:02:51;;;;;;;6.45;5.70;;;;;;;35.51;26.62;97852.41;1631562;86;20972;-77
2021/07/24 11:05:32;;;;;;;7.55;5.87;;;;;;;36.75;27.27;97848.84;1638457;86;20916;-75
2021/07/24 11:07:58;;;;;;;7.83;5.58;;;;;;;36.94;26.26;97845.55;1638065;86;21097;-78
2021/07/24 11:10:25;;;;;;;10.72;6.15;;;;;;;38.28;25.73;97845.63;1638261;86;21018;-75
2021/07/24 11:12:51;;;;;;;7.50;5.47;;;;;;;38.23;25.81;97849.72;1638207;86;20996;-75
2021/07/24 11:15:30;;;;;;;6.92;5.42;;;;;;;34.67;28.36;97849.61;1638294;87;21455;-78
2021/07/24 11:18:23;;;;;;;6.53;5.92;;;;;;;32.51;31.95;97857.63;1594075;88;21046;-78
2021/07/24 11:20:49;;;;;;;12.23;7.75;;;;;;;31.89;32.79;97854.31;1603487;88;21839;-78
2021/07/24 11:23:15;;;;;;;8.33;5.87;;;;;;;32.77;31.37;97853.11;1635875;86;21081;-75
2021/07/24 11:25:42;;;;;;;8.35;6.10;;;;;;;34.21;29.67;97848.05;1615193;86;21086;-75
2021/07/24 11:28:10;;;;;;;11.20;6.30;;;;;;;34.99;28.51;97843.09;1606543;88;21401;-75
2021/07/24 11:30:36;;;;;;;7.60;5.60;;;;;;;36.42;27.19;97847.02;1605903;88;21480;-75
2021/07/24 11:33:03;;;;;;;6.40;5.65;;;;;;;34.44;27.95;97837.20;1606394;87;21994;-78